Current Weather

Kalamazoo/Battle Creek Intl

Kalamazoo, Michigan (KAZO)

Report from: Friday, February 23, 2024 2:53 PM EST
Current time: Friday, February 23, 2024 3:42 PM EST

Nearby weather – Weather history – Daily summaries
Weather forecast

Temperature10.0°C (50.0°F)
Wind chill6.9°C (44.4°F)
Dew point-3.3°C (26.1°F)
Winds 14 kts (7.2 m/s, 16.1 mph) West-Northwest (300°)
Visibility10 mi. (16.1 km)
Clouds Sky clear
Altimeter29.63 in.Hg (1003 mB)
Relative humidity39 %
Density altitude-203 ft. (-62 m)
Sea-level pressure100.4 kPa (1004 mB, 29.65 in.Hg)
Remarks System requires maintenance
Automated weather observing station with precipitation discriminator
Flight conditions Visual Meteorological Conditions
Raw dataKAZO 231953Z 30014KT 10SM CLR 10/M03 A2963 RMK AO2 SLP039 T01001033 $
An error has occurred. This application may no longer respond until reloaded. Reload 🗙